createdAt,value
2022-09-27T00:01:47.120Z,7.75
2022-09-27T00:04:18.289Z,7.71
2022-09-27T00:06:49.121Z,7.68
2022-09-27T00:09:20.425Z,7.65
2022-09-27T00:11:51.351Z,7.61
2022-09-27T00:14:22.378Z,7.56
2022-09-27T00:16:53.647Z,7.51
2022-09-27T00:19:27.149Z,7.47
2022-09-27T00:22:01.508Z,7.44
2022-09-27T00:24:32.756Z,7.43
2022-09-27T00:27:03.758Z,7.42
2022-09-27T00:29:34.775Z,7.44
2022-09-27T00:32:06.240Z,7.45
2022-09-27T00:34:37.499Z,7.48
2022-09-27T00:37:08.731Z,7.49
2022-09-27T00:39:40.186Z,7.50
2022-09-27T00:42:13.444Z,7.53
2022-09-27T00:45:13.284Z,7.55
2022-09-27T00:47:55.705Z,7.60
2022-09-27T00:50:32.449Z,7.63
2022-09-27T00:53:11.416Z,7.66
2022-09-27T00:55:45.398Z,7.69
2022-09-27T00:58:19.948Z,7.70
2022-09-27T01:00:55.549Z,7.69
2022-09-27T01:03:32.585Z,7.71
2022-09-27T01:06:04.314Z,7.74
2022-09-27T01:08:35.925Z,7.74
2022-09-27T01:11:19.839Z,7.76
2022-09-27T01:14:07.317Z,7.77
2022-09-27T01:16:46.912Z,7.80
2022-09-27T01:19:44.436Z,7.81
2022-09-27T01:22:18.645Z,7.80
2022-09-27T01:25:03.123Z,7.79
2022-09-27T01:28:20.140Z,7.77
2022-09-27T01:30:55.296Z,7.76
2022-09-27T01:33:42.206Z,7.78
2022-09-27T01:36:23.624Z,7.80
2022-09-27T01:39:07.522Z,7.81
2022-09-27T01:41:46.663Z,7.81
2022-09-27T01:44:23.233Z,7.82
2022-09-27T01:46:56.982Z,7.81
2022-09-27T01:49:32.641Z,7.81
2022-09-27T01:52:07.722Z,7.80
2022-09-27T01:54:42.072Z,7.82
2022-09-27T01:57:18.186Z,7.82
2022-09-27T01:59:54.570Z,7.84
2022-09-27T02:02:31.316Z,7.84
2022-09-27T02:05:06.284Z,7.86
2022-09-27T02:07:43.495Z,7.85
2022-09-27T02:10:21.265Z,7.85
2022-09-27T02:12:58.255Z,7.88
2022-09-27T02:15:34.113Z,7.91
2022-09-27T02:18:14.883Z,7.94
2022-09-27T02:20:51.933Z,7.96
2022-09-27T02:23:24.129Z,7.97
2022-09-27T02:26:00.294Z,7.95
2022-09-27T02:28:34.730Z,7.94
2022-09-27T02:31:05.990Z,7.95
2022-09-27T02:33:42.019Z,7.95
2022-09-27T02:36:13.557Z,7.97
2022-09-27T02:38:46.412Z,7.97
2022-09-27T02:41:19.239Z,7.98
2022-09-27T02:43:54.044Z,7.98
2022-09-27T02:46:41.320Z,7.98
2022-09-27T02:49:30.955Z,7.99
2022-09-27T02:52:14.069Z,7.99
2022-09-27T02:54:53.692Z,7.99
2022-09-27T02:57:35.838Z,8.02
2022-09-27T03:00:12.050Z,8.02
2022-09-27T03:02:54.452Z,8.03
2022-09-27T03:05:29.370Z,8.03
2022-09-27T03:08:00.760Z,8.04
2022-09-27T03:10:30.235Z,8.06
2022-09-27T03:13:01.189Z,8.06
2022-09-27T03:15:30.750Z,8.09
2022-09-27T03:18:01.728Z,8.09
2022-09-27T03:20:32.722Z,8.11
2022-09-27T03:23:03.667Z,8.12
2022-09-27T03:25:34.796Z,8.13
2022-09-27T03:28:05.049Z,8.15
2022-09-27T03:30:36.210Z,8.14
2022-09-27T03:33:09.282Z,8.14
2022-09-27T03:35:41.869Z,8.11
2022-09-27T03:38:13.091Z,8.13
2022-09-27T03:40:44.521Z,8.09
2022-09-27T03:43:15.344Z,8.08
2022-09-27T03:45:47.416Z,8.09
2022-09-27T03:48:18.535Z,8.11
2022-09-27T03:50:51.769Z,8.12
2022-09-27T03:53:22.619Z,8.14
2022-09-27T03:55:53.637Z,8.17
2022-09-27T03:58:24.489Z,8.18
2022-09-27T04:00:55.755Z,8.18
2022-09-27T04:03:27.284Z,8.18
2022-09-27T04:06:00.593Z,8.18
2022-09-27T04:08:31.927Z,8.18
2022-09-27T04:11:03.588Z,8.21
2022-09-27T04:13:34.610Z,8.24
2022-09-27T04:16:04.305Z,8.25
2022-09-27T04:18:35.289Z,8.25
2022-09-27T04:21:04.788Z,8.28
2022-09-27T04:23:36.495Z,8.27
2022-09-27T04:26:07.737Z,8.29
2022-09-27T04:28:39.088Z,8.30
2022-09-27T04:31:10.105Z,8.30
2022-09-27T04:33:41.376Z,8.29
2022-09-27T04:36:28.980Z,8.27
2022-09-27T04:39:02.671Z,8.23
2022-09-27T04:41:35.778Z,8.21
2022-09-27T04:44:07.454Z,8.18
2022-09-27T04:46:38.370Z,8.17
2022-09-27T04:49:09.554Z,8.17
2022-09-27T04:51:40.329Z,8.18
2022-09-27T04:54:11.617Z,8.19
2022-09-27T04:56:41.022Z,8.21
2022-09-27T04:59:13.106Z,8.20
2022-09-27T05:01:44.428Z,8.21
2022-09-27T05:04:15.562Z,8.21
2022-09-27T05:06:45.056Z,8.22
2022-09-27T05:09:16.337Z,8.21
2022-09-27T05:11:47.304Z,8.21
2022-09-27T05:14:18.615Z,8.19
2022-09-27T05:16:49.790Z,8.20
2022-09-27T05:19:21.043Z,8.19
2022-09-27T05:21:52.328Z,8.18
2022-09-27T05:24:23.370Z,8.17
2022-09-27T05:26:54.410Z,8.17
2022-09-27T05:29:23.865Z,8.16
2022-09-27T05:31:54.732Z,8.12
2022-09-27T05:34:25.975Z,8.09
2022-09-27T05:36:57.005Z,8.08
2022-09-27T05:39:28.084Z,8.10
2022-09-27T05:41:57.785Z,8.14
2022-09-27T05:44:27.299Z,8.18
2022-09-27T05:46:59.698Z,8.24
2022-09-27T05:49:30.627Z,8.29
2022-09-27T05:52:02.254Z,8.34
2022-09-27T05:54:33.499Z,8.42
2022-09-27T05:57:05.990Z,8.50
2022-09-27T05:59:36.895Z,8.59
2022-09-27T06:02:08.071Z,8.65
2022-09-27T06:04:39.269Z,8.70
2022-09-27T06:07:08.686Z,8.81
2022-09-27T06:09:39.971Z,8.87
2022-09-27T06:12:11.986Z,8.95
2022-09-27T06:14:43.179Z,9.00
2022-09-27T06:17:14.222Z,9.07
2022-09-27T06:19:46.287Z,9.15
2022-09-27T06:22:17.184Z,9.22
2022-09-27T06:24:48.103Z,9.29
2022-09-27T06:27:19.720Z,9.38
2022-09-27T06:29:51.000Z,9.44
2022-09-27T06:32:22.110Z,9.48
2022-09-27T06:34:53.461Z,9.60
2022-09-27T06:37:27.680Z,9.73
2022-09-27T06:39:58.444Z,9.85
2022-09-27T06:42:27.990Z,9.96
2022-09-27T06:44:57.428Z,10.07
2022-09-27T06:47:30.026Z,10.16
2022-09-27T06:50:03.822Z,10.29
2022-09-27T06:52:35.092Z,10.43
2022-09-27T06:55:06.722Z,10.55
2022-09-27T06:57:55.262Z,10.64
2022-09-27T07:00:26.976Z,10.69
2022-09-27T07:03:01.987Z,10.75
2022-09-27T07:05:33.672Z,10.77
2022-09-27T07:08:05.382Z,10.80
2022-09-27T07:10:38.247Z,10.80
2022-09-27T07:13:11.063Z,10.78
2022-09-27T07:15:43.678Z,10.78
2022-09-27T07:18:14.711Z,10.76
2022-09-27T07:20:45.724Z,10.73
2022-09-27T07:23:15.616Z,10.73
2022-09-27T07:25:47.635Z,10.74
2022-09-27T07:28:22.122Z,10.76
2022-09-27T07:30:57.145Z,10.74
2022-09-27T07:33:28.078Z,10.73
2022-09-27T07:35:58.943Z,10.71
2022-09-27T07:38:28.436Z,10.69
2022-09-27T07:40:59.312Z,10.66
2022-09-27T07:43:28.630Z,10.64
2022-09-27T07:46:00.376Z,10.62
2022-09-27T07:48:31.460Z,10.62
2022-09-27T07:51:02.296Z,10.59
2022-09-27T07:53:33.711Z,10.56
2022-09-27T07:56:04.882Z,10.54
2022-09-27T07:58:36.137Z,10.51
2022-09-27T08:01:07.336Z,10.51
2022-09-27T08:03:38.179Z,10.52
2022-09-27T08:06:07.555Z,10.54
2022-09-27T08:08:38.528Z,10.52
2022-09-27T08:11:16.055Z,10.50
2022-09-27T08:13:48.047Z,10.52
2022-09-27T08:16:19.518Z,10.51
2022-09-27T08:18:50.596Z,10.54
2022-09-27T08:21:21.865Z,10.57
2022-09-27T08:23:54.060Z,10.60
2022-09-27T08:26:25.304Z,10.67
2022-09-27T08:28:56.403Z,10.70
2022-09-27T08:31:27.309Z,10.75
2022-09-27T08:33:57.158Z,10.75
2022-09-27T08:36:28.546Z,10.72
2022-09-27T08:39:00.620Z,10.69
2022-09-27T08:41:39.917Z,10.68
2022-09-27T08:44:19.196Z,10.68
2022-09-27T08:47:03.070Z,10.70
2022-09-27T08:49:37.729Z,10.79
2022-09-27T08:52:14.503Z,10.85
2022-09-27T08:54:47.010Z,10.92
2022-09-27T08:57:18.392Z,10.98
2022-09-27T08:59:55.398Z,11.06
2022-09-27T09:02:27.554Z,11.19
2022-09-27T09:05:03.810Z,11.27
2022-09-27T09:07:56.083Z,11.33
2022-09-27T09:11:03.785Z,11.43
2022-09-27T09:13:55.876Z,11.51
2022-09-27T09:16:37.113Z,11.58
2022-09-27T09:19:30.129Z,11.58
2022-09-27T09:22:07.860Z,11.59
2022-09-27T09:24:54.143Z,11.63
2022-09-27T09:27:35.028Z,11.70
2022-09-27T09:30:19.935Z,11.79
2022-09-27T09:33:11.216Z,11.87
2022-09-27T09:35:48.671Z,11.97
2022-09-27T09:38:24.628Z,12.03
2022-09-27T09:41:01.964Z,12.10
2022-09-27T09:43:37.602Z,12.17
2022-09-27T09:46:15.398Z,12.22
2022-09-27T09:48:50.977Z,12.25
2022-09-27T09:51:28.553Z,12.27
2022-09-27T09:54:05.257Z,12.29
2022-09-27T09:56:41.588Z,12.30
2022-09-27T09:59:17.467Z,12.37
2022-09-27T10:01:49.518Z,12.45
2022-09-27T10:04:24.549Z,12.43
2022-09-27T10:06:58.099Z,12.46
2022-09-27T10:09:30.418Z,12.50
2022-09-27T10:12:01.689Z,12.46
2022-09-27T10:14:33.852Z,12.41
2022-09-27T10:17:11.491Z,12.36
2022-09-27T10:19:43.084Z,12.33
2022-09-27T10:22:20.105Z,12.29
2022-09-27T10:24:56.718Z,12.29
2022-09-27T10:27:28.903Z,12.35
2022-09-27T10:30:02.937Z,12.44
2022-09-27T10:32:38.235Z,12.51
2022-09-27T10:35:36.954Z,12.60
2022-09-27T10:38:28.714Z,12.73
2022-09-27T10:41:17.871Z,12.81
2022-09-27T10:43:48.860Z,12.76
2022-09-27T10:46:27.240Z,12.71
2022-09-27T10:49:18.982Z,12.71
2022-09-27T10:51:54.451Z,12.71
2022-09-27T10:54:28.693Z,12.70
2022-09-27T10:57:04.312Z,12.72
2022-09-27T10:59:37.994Z,12.77
2022-09-27T11:02:18.723Z,12.85
2022-09-27T11:05:07.232Z,12.96
2022-09-27T11:07:49.232Z,13.01
2022-09-27T11:10:36.388Z,13.03
2022-09-27T11:13:15.431Z,12.99
2022-09-27T11:16:06.198Z,12.90
2022-09-27T11:18:45.880Z,12.84
2022-09-27T11:21:29.483Z,12.81
2022-09-27T11:24:11.929Z,12.83
2022-09-27T11:26:52.549Z,12.87
2022-09-27T11:29:37.462Z,12.94
2022-09-27T11:32:21.188Z,13.04
2022-09-27T11:35:08.145Z,13.10
2022-09-27T11:37:49.375Z,13.09
2022-09-27T11:40:32.918Z,13.06
2022-09-27T11:43:15.813Z,12.98
2022-09-27T11:46:15.385Z,12.88
2022-09-27T11:49:21.497Z,12.83
2022-09-27T11:52:10.932Z,12.80
2022-09-27T11:54:47.323Z,12.83
2022-09-27T11:57:23.608Z,12.83
2022-09-27T12:00:08.071Z,12.85
2022-09-27T12:03:06.459Z,12.83
2022-09-27T12:05:54.216Z,12.82
2022-09-27T12:08:39.871Z,12.77
2022-09-27T12:11:18.355Z,12.70
2022-09-27T12:13:54.000Z,12.58
2022-09-27T12:16:27.527Z,12.46
2022-09-27T12:18:59.056Z,12.34
2022-09-27T12:21:33.892Z,12.13
2022-09-27T12:24:06.139Z,12.00
2022-09-27T12:26:42.333Z,11.92
2022-09-27T12:29:19.914Z,11.88
2022-09-27T12:31:58.332Z,11.89
2022-09-27T12:34:39.167Z,11.99
2022-09-27T12:37:17.713Z,12.09
2022-09-27T12:39:55.743Z,12.18
2022-09-27T12:42:31.278Z,12.24
2022-09-27T12:45:02.364Z,12.30
2022-09-27T12:48:00.213Z,12.34
2022-09-27T12:50:38.111Z,12.36
2022-09-27T12:53:18.985Z,12.39
2022-09-27T12:56:14.091Z,12.42
2022-09-27T12:59:17.587Z,12.47
2022-09-27T13:02:04.290Z,12.55
2022-09-27T13:04:52.563Z,12.63
2022-09-27T13:07:37.989Z,12.72
2022-09-27T13:10:33.030Z,12.79
2022-09-27T13:13:06.330Z,12.84
2022-09-27T13:15:39.999Z,12.92
2022-09-27T13:18:32.300Z,13.05
2022-09-27T13:21:05.158Z,13.18
2022-09-27T13:24:02.310Z,13.25
2022-09-27T13:26:53.069Z,13.36
2022-09-27T13:29:35.351Z,13.47
2022-09-27T13:32:19.183Z,13.50
2022-09-27T13:35:20.124Z,13.48
2022-09-27T13:37:59.087Z,13.43
2022-09-27T13:40:33.386Z,13.37
2022-09-27T13:43:47.759Z,13.29
2022-09-27T13:46:22.105Z,13.11
2022-09-27T13:48:59.517Z,12.95
2022-09-27T13:51:44.489Z,12.83
2022-09-27T13:54:40.135Z,12.69
2022-09-27T13:57:47.716Z,12.50
2022-09-27T14:00:21.398Z,12.33
2022-09-27T14:03:04.055Z,12.22
2022-09-27T14:05:41.506Z,12.06
2022-09-27T14:08:25.351Z,11.77
2022-09-27T14:10:58.562Z,11.42
2022-09-27T14:13:32.142Z,11.13
2022-09-27T14:16:06.541Z,10.91
2022-09-27T14:18:44.698Z,10.70
2022-09-27T14:21:23.847Z,10.58
2022-09-27T14:23:55.059Z,10.55
2022-09-27T14:26:28.087Z,10.59
2022-09-27T14:29:01.155Z,10.69
2022-09-27T14:31:32.144Z,10.74
2022-09-27T14:34:10.012Z,10.75
2022-09-27T14:36:58.764Z,10.74
2022-09-27T14:39:33.519Z,10.70
2022-09-27T14:42:08.116Z,10.64
2022-09-27T14:44:44.310Z,10.63
2022-09-27T14:47:21.338Z,10.62
2022-09-27T14:49:53.750Z,10.61
2022-09-27T14:52:28.961Z,10.60
2022-09-27T14:55:07.875Z,10.63
2022-09-27T14:57:40.297Z,10.62
2022-09-27T15:00:21.072Z,10.63
2022-09-27T15:02:55.345Z,10.64
2022-09-27T15:05:31.438Z,10.68
2022-09-27T15:08:05.864Z,10.77
2022-09-27T15:10:38.133Z,10.93
2022-09-27T15:13:13.836Z,10.98
2022-09-27T15:15:46.321Z,11.01
2022-09-27T15:18:40.886Z,11.04
2022-09-27T15:21:13.661Z,11.07
2022-09-27T15:23:46.568Z,11.14
2022-09-27T15:26:20.373Z,11.22
2022-09-27T15:28:54.137Z,11.47
2022-09-27T15:31:34.919Z,11.52
2022-09-27T15:34:07.154Z,11.53
2022-09-27T15:37:00.374Z,11.51
2022-09-27T15:39:34.482Z,11.40
2022-09-27T15:42:10.821Z,11.29
2022-09-27T15:44:47.630Z,11.18
2022-09-27T15:47:56.716Z,11.10
2022-09-27T15:50:41.416Z,11.06
2022-09-27T15:53:13.266Z,11.07
2022-09-27T15:55:45.807Z,11.12
2022-09-27T15:58:21.284Z,11.21
2022-09-27T16:00:57.106Z,11.23
2022-09-27T16:03:29.630Z,11.19
2022-09-27T16:06:02.268Z,11.13
2022-09-27T16:08:33.320Z,11.08
2022-09-27T16:11:05.694Z,11.03
2022-09-27T16:13:37.114Z,10.99
2022-09-27T16:16:13.766Z,10.94
2022-09-27T16:18:44.625Z,10.89
2022-09-27T16:21:15.847Z,10.82
2022-09-27T16:23:46.911Z,10.75
2022-09-27T16:26:19.778Z,10.70
2022-09-27T16:28:50.643Z,10.63
2022-09-27T16:31:20.081Z,10.56
2022-09-27T16:33:52.251Z,10.47
2022-09-27T16:36:23.175Z,10.39
2022-09-27T16:38:54.683Z,10.30
2022-09-27T16:41:25.930Z,10.19
2022-09-27T16:43:56.624Z,10.09
2022-09-27T16:46:26.002Z,9.98
2022-09-27T16:48:56.963Z,9.84
2022-09-27T16:51:45.287Z,9.72
2022-09-27T16:54:17.689Z,9.61
2022-09-27T16:56:52.105Z,9.52
2022-09-27T16:59:25.954Z,9.44
2022-09-27T17:01:58.365Z,9.38
2022-09-27T17:04:31.007Z,9.27
2022-09-27T17:07:02.049Z,9.18
2022-09-27T17:09:33.135Z,9.15
2022-09-27T17:12:07.591Z,9.12
2022-09-27T17:14:40.757Z,9.10
2022-09-27T17:17:11.582Z,9.08
2022-09-27T17:19:42.652Z,9.08
2022-09-27T17:22:13.528Z,9.08
2022-09-27T17:24:44.549Z,9.08
2022-09-27T17:27:18.151Z,9.08
2022-09-27T17:29:49.821Z,9.08
2022-09-27T17:32:24.327Z,9.07
2022-09-27T17:34:55.974Z,9.08
2022-09-27T17:37:26.941Z,9.08
2022-09-27T17:39:58.074Z,9.10
2022-09-27T17:42:29.890Z,9.11
2022-09-27T17:45:00.762Z,9.11
2022-09-27T17:47:49.448Z,9.09
2022-09-27T17:50:28.521Z,9.08
2022-09-27T17:53:00.676Z,9.08
2022-09-27T17:55:32.701Z,9.07
2022-09-27T17:58:04.152Z,9.06
2022-09-27T18:00:35.321Z,9.05
2022-09-27T18:03:07.390Z,9.05
2022-09-27T18:05:38.560Z,9.07
2022-09-27T18:08:09.994Z,9.08
2022-09-27T18:10:40.487Z,9.10
2022-09-27T18:13:11.265Z,9.08
2022-09-27T18:15:43.456Z,9.04
2022-09-27T18:18:14.332Z,9.05
2022-09-27T18:20:48.593Z,9.04
2022-09-27T18:23:19.434Z,9.02
2022-09-27T18:25:58.167Z,9.00
2022-09-27T18:28:30.363Z,8.97
2022-09-27T18:31:19.547Z,8.96
2022-09-27T18:33:49.329Z,8.94
2022-09-27T18:36:20.063Z,8.94
2022-09-27T18:38:55.565Z,8.93
2022-09-27T18:41:28.129Z,8.94
2022-09-27T18:44:01.033Z,8.95
2022-09-27T18:46:36.538Z,8.96
2022-09-27T18:49:10.522Z,8.99
2022-09-27T18:51:46.487Z,9.02
2022-09-27T18:54:19.229Z,9.03
2022-09-27T18:56:52.375Z,9.05
2022-09-27T18:59:24.084Z,9.06
2022-09-27T19:01:55.135Z,9.06
2022-09-27T19:04:26.875Z,9.06
2022-09-27T19:06:59.493Z,9.07
2022-09-27T19:09:31.364Z,9.09
2022-09-27T19:12:02.357Z,9.07
2022-09-27T19:14:33.197Z,9.08
2022-09-27T19:17:02.445Z,9.06
2022-09-27T19:19:32.472Z,9.00
2022-09-27T19:22:02.247Z,8.96
2022-09-27T19:24:33.283Z,8.93
2022-09-27T19:27:02.635Z,8.91
2022-09-27T19:29:33.774Z,8.87
2022-09-27T19:32:04.750Z,8.87
2022-09-27T19:34:35.727Z,8.86
2022-09-27T19:37:07.049Z,8.85
2022-09-27T19:39:38.191Z,8.84
2022-09-27T19:42:09.294Z,8.83
2022-09-27T19:44:40.335Z,8.78
2022-09-27T19:47:11.750Z,8.73
2022-09-27T19:49:42.729Z,8.68
2022-09-27T19:52:12.233Z,8.63
2022-09-27T19:54:43.172Z,8.56
2022-09-27T19:57:13.746Z,8.49
2022-09-27T19:59:44.702Z,8.42
2022-09-27T20:02:14.170Z,8.37
2022-09-27T20:04:45.307Z,8.32
2022-09-27T20:07:14.749Z,8.24
2022-09-27T20:09:45.776Z,8.21
2022-09-27T20:12:16.964Z,8.18
2022-09-27T20:14:47.899Z,8.15
2022-09-27T20:17:16.995Z,8.13
2022-09-27T20:19:47.886Z,8.10
2022-09-27T20:22:18.722Z,8.11
2022-09-27T20:24:49.994Z,8.12
2022-09-27T20:27:21.468Z,8.12
2022-09-27T20:29:52.328Z,8.12
2022-09-27T20:32:27.639Z,8.11
2022-09-27T20:34:59.639Z,8.11
2022-09-27T20:37:32.877Z,8.11
2022-09-27T20:40:07.680Z,8.12
2022-09-27T20:42:38.378Z,8.11
2022-09-27T20:45:10.319Z,8.12
2022-09-27T20:47:41.258Z,8.12
2022-09-27T20:50:13.621Z,8.11
2022-09-27T20:52:44.459Z,8.12
2022-09-27T20:55:14.070Z,8.13
2022-09-27T20:57:56.875Z,8.11
2022-09-27T21:00:29.266Z,8.09
2022-09-27T21:03:00.843Z,8.05
2022-09-27T21:05:31.816Z,8.04
2022-09-27T21:08:01.377Z,8.02
2022-09-27T21:10:33.325Z,7.89
2022-09-27T21:13:04.514Z,7.86
2022-09-27T21:15:34.161Z,7.84
2022-09-27T21:18:05.320Z,7.81
2022-09-27T21:20:36.066Z,7.82
2022-09-27T21:23:06.976Z,7.82
2022-09-27T21:25:37.942Z,7.81
2022-09-27T21:28:09.197Z,7.76
2022-09-27T21:30:40.013Z,7.72
2022-09-27T21:33:09.437Z,7.71
2022-09-27T21:35:40.290Z,7.70
2022-09-27T21:38:11.187Z,7.70
2022-09-27T21:40:42.949Z,7.70
2022-09-27T21:43:13.977Z,7.69
2022-09-27T21:45:44.985Z,7.69
2022-09-27T21:48:15.878Z,7.69
2022-09-27T21:50:47.260Z,7.68
2022-09-27T21:53:18.315Z,7.66
2022-09-27T21:55:57.821Z,7.64
2022-09-27T21:58:28.967Z,7.63
2022-09-27T22:01:00.180Z,7.60
2022-09-27T22:03:31.127Z,7.60
2022-09-27T22:06:01.982Z,7.58
2022-09-27T22:08:31.380Z,7.58
2022-09-27T22:11:02.878Z,7.54
2022-09-27T22:13:34.624Z,7.54
2022-09-27T22:16:10.566Z,7.54
2022-09-27T22:18:44.172Z,7.54
2022-09-27T22:21:16.966Z,7.55
2022-09-27T22:23:48.428Z,7.55
2022-09-27T22:26:21.508Z,7.56
2022-09-27T22:28:52.810Z,7.56
2022-09-27T22:31:23.251Z,7.56
2022-09-27T22:33:55.765Z,7.53
2022-09-27T22:36:28.534Z,7.54
2022-09-27T22:38:59.811Z,7.57
2022-09-27T22:41:30.866Z,7.59
2022-09-27T22:44:02.339Z,7.61
2022-09-27T22:46:33.518Z,7.63
2022-09-27T22:49:04.365Z,7.63
2022-09-27T22:51:33.811Z,7.64
2022-09-27T22:54:05.227Z,7.62
2022-09-27T22:56:36.134Z,7.60
2022-09-27T22:59:05.678Z,7.61
2022-09-27T23:01:36.904Z,7.59
2022-09-27T23:04:07.926Z,7.61
2022-09-27T23:06:39.033Z,7.60
2022-09-27T23:09:11.486Z,7.60
2022-09-27T23:11:42.617Z,7.62
2022-09-27T23:14:15.744Z,7.63
2022-09-27T23:16:46.888Z,7.64
2022-09-27T23:19:20.080Z,7.62
2022-09-27T23:21:50.986Z,7.62
2022-09-27T23:24:23.548Z,7.61
2022-09-27T23:27:08.276Z,7.60
2022-09-27T23:29:39.395Z,7.59
2022-09-27T23:32:10.403Z,7.59
2022-09-27T23:34:42.012Z,7.57
2022-09-27T23:37:12.855Z,7.59
2022-09-27T23:39:43.707Z,7.58
2022-09-27T23:42:14.706Z,7.56
2022-09-27T23:44:45.687Z,7.54
2022-09-27T23:47:16.790Z,7.54
2022-09-27T23:49:47.836Z,7.55
2022-09-27T23:52:17.306Z,7.56
2022-09-27T23:54:48.543Z,7.56
2022-09-27T23:57:17.849Z,7.57
2022-09-27T23:59:48.780Z,7.58
